sensor_id;sensor_type;location;lat;lon;timestamp;P1;durP1;ratioP1;P2;durP2;ratioP2
80557;SDS011;69901;43.524;-5.636;2023-10-13T00:01:33;17.65;;;7.65;;
80557;SDS011;69901;43.524;-5.636;2023-10-13T00:03:58;18.63;;;7.40;;
80557;SDS011;69901;43.524;-5.636;2023-10-13T00:06:24;18.07;;;7.10;;
80557;SDS011;69901;43.524;-5.636;2023-10-13T00:08:52;18.60;;;7.30;;
80557;SDS011;69901;43.524;-5.636;2023-10-13T00:11:17;15.67;;;7.53;;
80557;SDS011;69901;43.524;-5.636;2023-10-13T00:13:43;14.95;;;7.18;;
80557;SDS011;69901;43.524;-5.636;2023-10-13T00:16:16;16.67;;;7.25;;
80557;SDS011;69901;43.524;-5.636;2023-10-13T00:18:42;14.60;;;6.33;;
80557;SDS011;69901;43.524;-5.636;2023-10-13T00:21:09;15.48;;;6.88;;
80557;SDS011;69901;43.524;-5.636;2023-10-13T00:23:42;16.52;;;7.07;;
80557;SDS011;69901;43.524;-5.636;2023-10-13T00:26:23;16.10;;;6.38;;
80557;SDS011;69901;43.524;-5.636;2023-10-13T00:28:50;14.20;;;6.82;;
80557;SDS011;69901;43.524;-5.636;2023-10-13T00:31:24;18.13;;;6.70;;
80557;SDS011;69901;43.524;-5.636;2023-10-13T00:33:51;16.58;;;6.97;;
80557;SDS011;69901;43.524;-5.636;2023-10-13T00:36:20;15.38;;;7.00;;
80557;SDS011;69901;43.524;-5.636;2023-10-13T00:38:46;13.17;;;5.97;;
80557;SDS011;69901;43.524;-5.636;2023-10-13T00:41:17;18.35;;;6.40;;
80557;SDS011;69901;43.524;-5.636;2023-10-13T00:43:58;14.27;;;6.05;;
80557;SDS011;69901;43.524;-5.636;2023-10-13T00:46:32;15.35;;;6.65;;
80557;SDS011;69901;43.524;-5.636;2023-10-13T00:48:59;14.00;;;6.32;;
80557;SDS011;69901;43.524;-5.636;2023-10-13T00:51:25;16.10;;;6.10;;
80557;SDS011;69901;43.524;-5.636;2023-10-13T00:54:06;16.52;;;6.55;;
80557;SDS011;69901;43.524;-5.636;2023-10-13T00:56:45;13.30;;;5.68;;
80557;SDS011;69901;43.524;-5.636;2023-10-13T00:59:29;16.15;;;6.28;;
80557;SDS011;69901;43.524;-5.636;2023-10-13T01:01:59;15.02;;;6.55;;
80557;SDS011;69901;43.524;-5.636;2023-10-13T01:04:44;13.43;;;6.33;;
80557;SDS011;69901;43.524;-5.636;2023-10-13T01:07:11;14.18;;;6.20;;
80557;SDS011;69901;43.524;-5.636;2023-10-13T01:09:40;14.65;;;6.35;;
80557;SDS011;69901;43.524;-5.636;2023-10-13T01:12:07;15.20;;;6.30;;
80557;SDS011;69901;43.524;-5.636;2023-10-13T01:14:34;15.05;;;6.13;;
80557;SDS011;69901;43.524;-5.636;2023-10-13T01:17:00;12.93;;;5.25;;
80557;SDS011;69901;43.524;-5.636;2023-10-13T01:19:26;12.60;;;5.75;;
80557;SDS011;69901;43.524;-5.636;2023-10-13T01:21:52;15.90;;;6.50;;
80557;SDS011;69901;43.524;-5.636;2023-10-13T01:24:28;16.15;;;6.25;;
80557;SDS011;69901;43.524;-5.636;2023-10-13T01:26:56;16.35;;;6.70;;
80557;SDS011;69901;43.524;-5.636;2023-10-13T01:29:21;13.30;;;6.07;;
80557;SDS011;69901;43.524;-5.636;2023-10-13T01:31:51;13.38;;;5.95;;
80557;SDS011;69901;43.524;-5.636;2023-10-13T01:34:17;14.65;;;6.03;;
80557;SDS011;69901;43.524;-5.636;2023-10-13T01:36:49;13.67;;;6.77;;
80557;SDS011;69901;43.524;-5.636;2023-10-13T01:39:22;16.58;;;6.68;;
80557;SDS011;69901;43.524;-5.636;2023-10-13T01:41:52;13.48;;;5.97;;
80557;SDS011;69901;43.524;-5.636;2023-10-13T01:44:21;12.20;;;5.78;;
80557;SDS011;69901;43.524;-5.636;2023-10-13T01:46:46;17.33;;;6.18;;
80557;SDS011;69901;43.524;-5.636;2023-10-13T01:49:13;13.00;;;6.10;;
80557;SDS011;69901;43.524;-5.636;2023-10-13T01:51:40;13.98;;;5.60;;
80557;SDS011;69901;43.524;-5.636;2023-10-13T01:54:05;12.37;;;5.93;;
80557;SDS011;69901;43.524;-5.636;2023-10-13T01:56:36;13.32;;;6.25;;
80557;SDS011;69901;43.524;-5.636;2023-10-13T01:59:07;14.55;;;5.90;;
80557;SDS011;69901;43.524;-5.636;2023-10-13T02:01:34;12.88;;;5.38;;
80557;SDS011;69901;43.524;-5.636;2023-10-13T02:03:59;12.80;;;4.97;;
80557;SDS011;69901;43.524;-5.636;2023-10-13T02:06:32;13.25;;;5.45;;
80557;SDS011;69901;43.524;-5.636;2023-10-13T02:09:07;18.10;;;5.90;;
80557;SDS011;69901;43.524;-5.636;2023-10-13T02:11:42;12.33;;;5.17;;
80557;SDS011;69901;43.524;-5.636;2023-10-13T02:14:08;14.80;;;5.50;;
80557;SDS011;69901;43.524;-5.636;2023-10-13T02:16:36;13.55;;;5.90;;
80557;SDS011;69901;43.524;-5.636;2023-10-13T02:19:01;13.60;;;5.13;;
80557;SDS011;69901;43.524;-5.636;2023-10-13T02:21:30;16.48;;;6.28;;
80557;SDS011;69901;43.524;-5.636;2023-10-13T02:23:57;14.75;;;5.75;;
80557;SDS011;69901;43.524;-5.636;2023-10-13T02:26:33;17.70;;;4.88;;
80557;SDS011;69901;43.524;-5.636;2023-10-13T02:29:04;15.68;;;5.18;;
80557;SDS011;69901;43.524;-5.636;2023-10-13T02:31:39;15.30;;;4.70;;
80557;SDS011;69901;43.524;-5.636;2023-10-13T02:34:04;13.80;;;5.13;;
80557;SDS011;69901;43.524;-5.636;2023-10-13T02:36:36;14.25;;;5.30;;
80557;SDS011;69901;43.524;-5.636;2023-10-13T02:39:09;13.85;;;4.93;;
80557;SDS011;69901;43.524;-5.636;2023-10-13T02:41:37;15.23;;;4.87;;
80557;SDS011;69901;43.524;-5.636;2023-10-13T02:44:03;14.45;;;4.78;;
80557;SDS011;69901;43.524;-5.636;2023-10-13T02:46:32;13.20;;;4.85;;
80557;SDS011;69901;43.524;-5.636;2023-10-13T02:49:00;13.03;;;5.50;;
80557;SDS011;69901;43.524;-5.636;2023-10-13T02:51:27;11.82;;;4.63;;
80557;SDS011;69901;43.524;-5.636;2023-10-13T02:54:11;13.32;;;5.50;;
80557;SDS011;69901;43.524;-5.636;2023-10-13T02:56:45;12.15;;;4.90;;
80557;SDS011;69901;43.524;-5.636;2023-10-13T02:59:24;16.92;;;5.75;;
80557;SDS011;69901;43.524;-5.636;2023-10-13T03:02:07;11.53;;;4.97;;
80557;SDS011;69901;43.524;-5.636;2023-10-13T03:04:54;16.20;;;5.85;;
80557;SDS011;69901;43.524;-5.636;2023-10-13T03:07:25;10.65;;;4.15;;
80557;SDS011;69901;43.524;-5.636;2023-10-13T03:09:53;15.57;;;5.47;;
80557;SDS011;69901;43.524;-5.636;2023-10-13T03:12:22;14.38;;;5.68;;
80557;SDS011;69901;43.524;-5.636;2023-10-13T03:14:49;13.57;;;5.10;;
80557;SDS011;69901;43.524;-5.636;2023-10-13T03:17:20;14.25;;;5.13;;
80557;SDS011;69901;43.524;-5.636;2023-10-13T03:19:58;13.60;;;4.93;;
80557;SDS011;69901;43.524;-5.636;2023-10-13T03:22:23;11.07;;;4.80;;
80557;SDS011;69901;43.524;-5.636;2023-10-13T03:24:56;13.70;;;5.05;;
80557;SDS011;69901;43.524;-5.636;2023-10-13T03:27:25;13.60;;;4.97;;
80557;SDS011;69901;43.524;-5.636;2023-10-13T03:30:04;12.75;;;4.65;;
80557;SDS011;69901;43.524;-5.636;2023-10-13T03:32:35;13.18;;;5.40;;
80557;SDS011;69901;43.524;-5.636;2023-10-13T03:35:07;12.93;;;4.43;;
80557;SDS011;69901;43.524;-5.636;2023-10-13T03:37:38;12.93;;;4.55;;
80557;SDS011;69901;43.524;-5.636;2023-10-13T03:40:07;14.40;;;6.00;;
80557;SDS011;69901;43.524;-5.636;2023-10-13T03:42:54;13.10;;;4.55;;
80557;SDS011;69901;43.524;-5.636;2023-10-13T03:45:32;12.02;;;4.35;;
80557;SDS011;69901;43.524;-5.636;2023-10-13T03:48:17;15.70;;;4.90;;
80557;SDS011;69901;43.524;-5.636;2023-10-13T03:50:52;12.45;;;5.68;;
80557;SDS011;69901;43.524;-5.636;2023-10-13T03:53:40;12.20;;;4.87;;
80557;SDS011;69901;43.524;-5.636;2023-10-13T03:56:25;14.07;;;5.45;;
80557;SDS011;69901;43.524;-5.636;2023-10-13T03:59:03;13.20;;;4.88;;
80557;SDS011;69901;43.524;-5.636;2023-10-13T04:01:38;16.33;;;4.47;;
80557;SDS011;69901;43.524;-5.636;2023-10-13T04:04:18;13.13;;;4.45;;
80557;SDS011;69901;43.524;-5.636;2023-10-13T04:07:04;11.90;;;4.87;;
80557;SDS011;69901;43.524;-5.636;2023-10-13T04:09:35;10.15;;;4.70;;
80557;SDS011;69901;43.524;-5.636;2023-10-13T04:12:12;11.90;;;5.22;;
80557;SDS011;69901;43.524;-5.636;2023-10-13T04:14:42;13.87;;;5.07;;
80557;SDS011;69901;43.524;-5.636;2023-10-13T04:17:23;12.10;;;4.30;;
80557;SDS011;69901;43.524;-5.636;2023-10-13T04:19:50;13.25;;;3.85;;
80557;SDS011;69901;43.524;-5.636;2023-10-13T04:22:35;10.50;;;4.28;;
80557;SDS011;69901;43.524;-5.636;2023-10-13T04:25:17;13.27;;;4.80;;
80557;SDS011;69901;43.524;-5.636;2023-10-13T04:28:13;16.63;;;4.82;;
80557;SDS011;69901;43.524;-5.636;2023-10-13T04:30:39;11.95;;;4.47;;
80557;SDS011;69901;43.524;-5.636;2023-10-13T04:33:28;12.75;;;4.10;;
80557;SDS011;69901;43.524;-5.636;2023-10-13T04:36:06;10.10;;;4.35;;
80557;SDS011;69901;43.524;-5.636;2023-10-13T04:38:46;11.37;;;4.00;;
80557;SDS011;69901;43.524;-5.636;2023-10-13T04:41:33;11.07;;;3.88;;
80557;SDS011;69901;43.524;-5.636;2023-10-13T04:44:09;11.90;;;4.20;;
80557;SDS011;69901;43.524;-5.636;2023-10-13T04:46:53;10.38;;;4.30;;
80557;SDS011;69901;43.524;-5.636;2023-10-13T04:49:20;13.02;;;4.22;;
80557;SDS011;69901;43.524;-5.636;2023-10-13T04:51:58;11.83;;;4.37;;
80557;SDS011;69901;43.524;-5.636;2023-10-13T04:54:27;11.40;;;4.63;;
80557;SDS011;69901;43.524;-5.636;2023-10-13T04:57:02;13.23;;;4.35;;
80557;SDS011;69901;43.524;-5.636;2023-10-13T04:59:49;12.02;;;3.97;;
80557;SDS011;69901;43.524;-5.636;2023-10-13T05:02:33;11.98;;;4.70;;
80557;SDS011;69901;43.524;-5.636;2023-10-13T05:05:02;12.90;;;4.00;;
80557;SDS011;69901;43.524;-5.636;2023-10-13T05:07:36;12.68;;;4.03;;
80557;SDS011;69901;43.524;-5.636;2023-10-13T05:10:20;10.73;;;4.45;;
80557;SDS011;69901;43.524;-5.636;2023-10-13T05:13:03;11.40;;;4.25;;
80557;SDS011;69901;43.524;-5.636;2023-10-13T05:15:48;11.23;;;4.68;;
80557;SDS011;69901;43.524;-5.636;2023-10-13T05:18:32;10.47;;;4.13;;
80557;SDS011;69901;43.524;-5.636;2023-10-13T05:21:17;11.15;;;4.07;;
80557;SDS011;69901;43.524;-5.636;2023-10-13T05:24:00;12.02;;;3.72;;
80557;SDS011;69901;43.524;-5.636;2023-10-13T05:26:44;13.20;;;4.38;;
80557;SDS011;69901;43.524;-5.636;2023-10-13T05:29:28;11.07;;;4.03;;
80557;SDS011;69901;43.524;-5.636;2023-10-13T05:32:12;9.50;;;4.17;;
80557;SDS011;69901;43.524;-5.636;2023-10-13T05:34:56;11.00;;;4.35;;
80557;SDS011;69901;43.524;-5.636;2023-10-13T05:37:40;12.02;;;4.47;;
80557;SDS011;69901;43.524;-5.636;2023-10-13T05:40:24;11.60;;;4.72;;
80557;SDS011;69901;43.524;-5.636;2023-10-13T05:43:08;11.88;;;4.65;;
80557;SDS011;69901;43.524;-5.636;2023-10-13T05:45:52;11.87;;;4.57;;
80557;SDS011;69901;43.524;-5.636;2023-10-13T05:48:36;12.68;;;4.35;;
80557;SDS011;69901;43.524;-5.636;2023-10-13T05:51:20;13.30;;;3.95;;
80557;SDS011;69901;43.524;-5.636;2023-10-13T05:54:00;15.10;;;4.38;;
80557;SDS011;69901;43.524;-5.636;2023-10-13T05:56:59;11.85;;;3.78;;
80557;SDS011;69901;43.524;-5.636;2023-10-13T05:59:42;14.17;;;3.90;;
80557;SDS011;69901;43.524;-5.636;2023-10-13T06:02:26;11.75;;;4.25;;
80557;SDS011;69901;43.524;-5.636;2023-10-13T06:05:10;10.07;;;4.05;;
80557;SDS011;69901;43.524;-5.636;2023-10-13T06:07:55;10.13;;;4.28;;
80557;SDS011;69901;43.524;-5.636;2023-10-13T06:11:02;10.80;;;4.88;;
80557;SDS011;69901;43.524;-5.636;2023-10-13T06:13:47;14.50;;;4.87;;
80557;SDS011;69901;43.524;-5.636;2023-10-13T06:16:30;13.77;;;4.55;;
80557;SDS011;69901;43.524;-5.636;2023-10-13T06:19:15;13.40;;;4.57;;
80557;SDS011;69901;43.524;-5.636;2023-10-13T06:21:59;11.43;;;4.50;;
80557;SDS011;69901;43.524;-5.636;2023-10-13T06:24:42;12.77;;;4.32;;
80557;SDS011;69901;43.524;-5.636;2023-10-13T06:27:26;12.13;;;4.47;;
80557;SDS011;69901;43.524;-5.636;2023-10-13T06:30:10;14.02;;;5.18;;
80557;SDS011;69901;43.524;-5.636;2023-10-13T06:32:37;12.73;;;4.72;;
80557;SDS011;69901;43.524;-5.636;2023-10-13T06:35:05;10.93;;;4.40;;
80557;SDS011;69901;43.524;-5.636;2023-10-13T06:37:43;13.60;;;4.68;;
80557;SDS011;69901;43.524;-5.636;2023-10-13T06:40:09;15.03;;;5.27;;
80557;SDS011;69901;43.524;-5.636;2023-10-13T06:43:01;17.17;;;5.78;;
80557;SDS011;69901;43.524;-5.636;2023-10-13T06:45:45;20.00;;;5.67;;
80557;SDS011;69901;43.524;-5.636;2023-10-13T06:48:25;10.68;;;4.13;;
80557;SDS011;69901;43.524;-5.636;2023-10-13T06:50:51;12.00;;;4.68;;
80557;SDS011;69901;43.524;-5.636;2023-10-13T06:53:21;12.75;;;4.07;;
80557;SDS011;69901;43.524;-5.636;2023-10-13T06:55:47;17.92;;;5.22;;
80557;SDS011;69901;43.524;-5.636;2023-10-13T06:58:14;11.47;;;4.60;;
80557;SDS011;69901;43.524;-5.636;2023-10-13T07:00:42;10.57;;;4.50;;
80557;SDS011;69901;43.524;-5.636;2023-10-13T07:03:18;13.87;;;5.13;;
80557;SDS011;69901;43.524;-5.636;2023-10-13T07:05:43;11.27;;;5.03;;
80557;SDS011;69901;43.524;-5.636;2023-10-13T07:08:10;13.07;;;4.73;;
80557;SDS011;69901;43.524;-5.636;2023-10-13T07:10:47;10.75;;;5.22;;
80557;SDS011;69901;43.524;-5.636;2023-10-13T07:13:17;13.68;;;5.40;;
80557;SDS011;69901;43.524;-5.636;2023-10-13T07:15:42;12.65;;;4.95;;
80557;SDS011;69901;43.524;-5.636;2023-10-13T07:18:14;13.73;;;5.27;;
80557;SDS011;69901;43.524;-5.636;2023-10-13T07:20:42;13.27;;;5.10;;
80557;SDS011;69901;43.524;-5.636;2023-10-13T07:23:10;14.00;;;6.03;;
80557;SDS011;69901;43.524;-5.636;2023-10-13T07:25:37;15.73;;;5.05;;
80557;SDS011;69901;43.524;-5.636;2023-10-13T07:28:03;14.67;;;6.47;;
80557;SDS011;69901;43.524;-5.636;2023-10-13T07:30:29;16.00;;;5.68;;
80557;SDS011;69901;43.524;-5.636;2023-10-13T07:32:56;16.77;;;6.00;;
80557;SDS011;69901;43.524;-5.636;2023-10-13T07:35:24;15.02;;;5.50;;
80557;SDS011;69901;43.524;-5.636;2023-10-13T07:37:50;12.77;;;5.60;;
80557;SDS011;69901;43.524;-5.636;2023-10-13T07:40:21;17.65;;;5.53;;
80557;SDS011;69901;43.524;-5.636;2023-10-13T07:42:56;15.68;;;6.55;;
80557;SDS011;69901;43.524;-5.636;2023-10-13T07:45:35;16.70;;;6.85;;
80557;SDS011;69901;43.524;-5.636;2023-10-13T07:48:04;19.10;;;7.47;;
80557;SDS011;69901;43.524;-5.636;2023-10-13T07:50:40;16.30;;;6.60;;
80557;SDS011;69901;43.524;-5.636;2023-10-13T07:53:05;23.45;;;7.43;;
80557;SDS011;69901;43.524;-5.636;2023-10-13T07:55:44;19.55;;;7.47;;
80557;SDS011;69901;43.524;-5.636;2023-10-13T07:58:10;17.65;;;7.82;;
80557;SDS011;69901;43.524;-5.636;2023-10-13T08:00:37;25.55;;;9.43;;
80557;SDS011;69901;43.524;-5.636;2023-10-13T08:03:08;19.97;;;8.53;;
80557;SDS011;69901;43.524;-5.636;2023-10-13T08:05:52;20.20;;;8.93;;
80557;SDS011;69901;43.524;-5.636;2023-10-13T08:08:24;16.75;;;7.10;;
80557;SDS011;69901;43.524;-5.636;2023-10-13T08:10:53;17.25;;;6.82;;
80557;SDS011;69901;43.524;-5.636;2023-10-13T08:13:26;18.38;;;6.28;;
80557;SDS011;69901;43.524;-5.636;2023-10-13T08:15:51;19.47;;;6.43;;
80557;SDS011;69901;43.524;-5.636;2023-10-13T08:18:18;17.38;;;6.55;;
80557;SDS011;69901;43.524;-5.636;2023-10-13T08:20:56;18.48;;;6.63;;
80557;SDS011;69901;43.524;-5.636;2023-10-13T08:23:28;18.03;;;7.03;;
80557;SDS011;69901;43.524;-5.636;2023-10-13T08:26:13;16.30;;;7.10;;
80557;SDS011;69901;43.524;-5.636;2023-10-13T08:28:55;22.13;;;7.30;;
80557;SDS011;69901;43.524;-5.636;2023-10-13T08:31:21;20.98;;;7.28;;
80557;SDS011;69901;43.524;-5.636;2023-10-13T08:33:54;16.63;;;7.32;;
80557;SDS011;69901;43.524;-5.636;2023-10-13T08:36:40;19.70;;;7.53;;
80557;SDS011;69901;43.524;-5.636;2023-10-13T08:39:06;21.15;;;7.88;;
80557;SDS011;69901;43.524;-5.636;2023-10-13T08:41:49;19.90;;;8.25;;
80557;SDS011;69901;43.524;-5.636;2023-10-13T08:44:38;15.73;;;7.00;;
80557;SDS011;69901;43.524;-5.636;2023-10-13T08:47:04;17.55;;;8.25;;
80557;SDS011;69901;43.524;-5.636;2023-10-13T08:49:31;19.10;;;7.50;;
80557;SDS011;69901;43.524;-5.636;2023-10-13T08:52:04;22.92;;;7.90;;
80557;SDS011;69901;43.524;-5.636;2023-10-13T08:54:32;20.00;;;8.32;;
80557;SDS011;69901;43.524;-5.636;2023-10-13T08:57:03;17.25;;;6.75;;
80557;SDS011;69901;43.524;-5.636;2023-10-13T08:59:45;21.33;;;7.88;;
80557;SDS011;69901;43.524;-5.636;2023-10-13T09:02:18;19.37;;;7.60;;
80557;SDS011;69901;43.524;-5.636;2023-10-13T09:04:46;20.05;;;8.45;;
80557;SDS011;69901;43.524;-5.636;2023-10-13T09:07:13;18.05;;;7.72;;
80557;SDS011;69901;43.524;-5.636;2023-10-13T09:09:48;18.02;;;8.32;;
80557;SDS011;69901;43.524;-5.636;2023-10-13T09:12:23;18.25;;;7.63;;
80557;SDS011;69901;43.524;-5.636;2023-10-13T09:15:04;15.67;;;7.47;;
80557;SDS011;69901;43.524;-5.636;2023-10-13T09:17:50;18.42;;;8.18;;
80557;SDS011;69901;43.524;-5.636;2023-10-13T09:20:15;25.07;;;9.57;;
80557;SDS011;69901;43.524;-5.636;2023-10-13T09:22:47;16.80;;;7.75;;
80557;SDS011;69901;43.524;-5.636;2023-10-13T09:25:33;19.05;;;8.68;;
80557;SDS011;69901;43.524;-5.636;2023-10-13T09:28:23;16.95;;;7.55;;
80557;SDS011;69901;43.524;-5.636;2023-10-13T09:30:48;18.35;;;7.90;;
80557;SDS011;69901;43.524;-5.636;2023-10-13T09:33:19;18.50;;;8.40;;
80557;SDS011;69901;43.524;-5.636;2023-10-13T09:35:53;24.75;;;9.68;;
80557;SDS011;69901;43.524;-5.636;2023-10-13T09:38:19;21.23;;;9.27;;
80557;SDS011;69901;43.524;-5.636;2023-10-13T09:40:45;24.17;;;10.00;;
80557;SDS011;69901;43.524;-5.636;2023-10-13T09:43:15;22.98;;;9.15;;
80557;SDS011;69901;43.524;-5.636;2023-10-13T09:45:43;28.10;;;10.40;;
80557;SDS011;69901;43.524;-5.636;2023-10-13T09:51:10;21.20;;;9.65;;
80557;SDS011;69901;43.524;-5.636;2023-10-13T09:53:37;26.70;;;11.37;;
80557;SDS011;69901;43.524;-5.636;2023-10-13T09:56:07;25.25;;;11.90;;
80557;SDS011;69901;43.524;-5.636;2023-10-13T09:58:47;25.77;;;10.65;;
80557;SDS011;69901;43.524;-5.636;2023-10-13T10:01:17;24.58;;;10.18;;
80557;SDS011;69901;43.524;-5.636;2023-10-13T10:04:05;25.42;;;10.70;;
80557;SDS011;69901;43.524;-5.636;2023-10-13T10:06:34;25.80;;;9.70;;
80557;SDS011;69901;43.524;-5.636;2023-10-13T10:09:11;21.63;;;9.27;;
80557;SDS011;69901;43.524;-5.636;2023-10-13T10:11:52;21.73;;;9.20;;
80557;SDS011;69901;43.524;-5.636;2023-10-13T10:17:07;21.55;;;9.93;;
80557;SDS011;69901;43.524;-5.636;2023-10-13T10:19:53;24.43;;;9.17;;
80557;SDS011;69901;43.524;-5.636;2023-10-13T10:25:17;20.52;;;9.15;;
80557;SDS011;69901;43.524;-5.636;2023-10-13T10:27:59;21.23;;;9.77;;
80557;SDS011;69901;43.524;-5.636;2023-10-13T10:30:29;21.98;;;10.20;;
80557;SDS011;69901;43.524;-5.636;2023-10-13T10:32:55;18.83;;;9.47;;
80557;SDS011;69901;43.524;-5.636;2023-10-13T10:35:24;20.95;;;8.38;;
80557;SDS011;69901;43.524;-5.636;2023-10-13T10:37:55;21.33;;;9.65;;
80557;SDS011;69901;43.524;-5.636;2023-10-13T10:40:36;23.80;;;9.77;;
80557;SDS011;69901;43.524;-5.636;2023-10-13T10:43:13;21.85;;;10.18;;
80557;SDS011;69901;43.524;-5.636;2023-10-13T10:45:46;19.07;;;9.13;;
80557;SDS011;69901;43.524;-5.636;2023-10-13T10:48:14;20.65;;;9.75;;
80557;SDS011;69901;43.524;-5.636;2023-10-13T10:50:53;20.42;;;10.70;;
80557;SDS011;69901;43.524;-5.636;2023-10-13T10:53:22;31.20;;;16.35;;
80557;SDS011;69901;43.524;-5.636;2023-10-13T10:56:09;27.83;;;14.38;;
80557;SDS011;69901;43.524;-5.636;2023-10-13T10:58:45;29.23;;;12.73;;
80557;SDS011;69901;43.524;-5.636;2023-10-13T11:01:11;23.95;;;12.48;;
80557;SDS011;69901;43.524;-5.636;2023-10-13T11:06:34;22.02;;;11.43;;
80557;SDS011;69901;43.524;-5.636;2023-10-13T11:09:07;22.10;;;9.38;;
80557;SDS011;69901;43.524;-5.636;2023-10-13T11:11:44;25.07;;;11.00;;
80557;SDS011;69901;43.524;-5.636;2023-10-13T11:14:09;23.77;;;11.30;;
80557;SDS011;69901;43.524;-5.636;2023-10-13T11:16:48;25.80;;;11.57;;
80557;SDS011;69901;43.524;-5.636;2023-10-13T11:19:19;22.27;;;9.55;;
80557;SDS011;69901;43.524;-5.636;2023-10-13T11:21:53;21.42;;;9.35;;
80557;SDS011;69901;43.524;-5.636;2023-10-13T11:24:19;21.17;;;9.07;;
80557;SDS011;69901;43.524;-5.636;2023-10-13T11:26:46;20.25;;;8.70;;
80557;SDS011;69901;43.524;-5.636;2023-10-13T11:29:15;21.52;;;10.07;;
80557;SDS011;69901;43.524;-5.636;2023-10-13T11:31:44;27.17;;;9.27;;
80557;SDS011;69901;43.524;-5.636;2023-10-13T11:34:09;22.40;;;10.60;;
80557;SDS011;69901;43.524;-5.636;2023-10-13T11:36:36;22.77;;;10.68;;
80557;SDS011;69901;43.524;-5.636;2023-10-13T11:39:01;26.43;;;9.90;;
80557;SDS011;69901;43.524;-5.636;2023-10-13T11:41:26;23.67;;;10.10;;
80557;SDS011;69901;43.524;-5.636;2023-10-13T11:43:59;23.08;;;9.45;;
80557;SDS011;69901;43.524;-5.636;2023-10-13T11:46:37;26.65;;;10.43;;
80557;SDS011;69901;43.524;-5.636;2023-10-13T11:49:03;28.80;;;10.63;;
80557;SDS011;69901;43.524;-5.636;2023-10-13T11:51:46;21.95;;;10.45;;
80557;SDS011;69901;43.524;-5.636;2023-10-13T11:56:37;26.50;;;11.20;;
80557;SDS011;69901;43.524;-5.636;2023-10-13T11:59:04;29.20;;;12.90;;
80557;SDS011;69901;43.524;-5.636;2023-10-13T12:01:31;26.58;;;12.35;;
80557;SDS011;69901;43.524;-5.636;2023-10-13T12:04:14;24.67;;;12.20;;
80557;SDS011;69901;43.524;-5.636;2023-10-13T12:06:58;28.92;;;14.15;;
80557;SDS011;69901;43.524;-5.636;2023-10-13T12:09:42;25.73;;;13.43;;
80557;SDS011;69901;43.524;-5.636;2023-10-13T12:12:20;24.57;;;12.00;;
80557;SDS011;69901;43.524;-5.636;2023-10-13T12:14:46;23.77;;;13.02;;
80557;SDS011;69901;43.524;-5.636;2023-10-13T12:17:27;30.15;;;14.80;;
80557;SDS011;69901;43.524;-5.636;2023-10-13T12:20:04;30.42;;;15.48;;
80557;SDS011;69901;43.524;-5.636;2023-10-13T12:22:36;34.38;;;16.35;;
80557;SDS011;69901;43.524;-5.636;2023-10-13T12:25:07;30.07;;;15.30;;
80557;SDS011;69901;43.524;-5.636;2023-10-13T12:28:09;35.22;;;16.42;;
80557;SDS011;69901;43.524;-5.636;2023-10-13T12:30:43;37.40;;;17.75;;
80557;SDS011;69901;43.524;-5.636;2023-10-13T12:33:15;36.42;;;18.45;;
80557;SDS011;69901;43.524;-5.636;2023-10-13T12:35:49;39.30;;;18.55;;
80557;SDS011;69901;43.524;-5.636;2023-10-13T12:38:34;40.37;;;16.90;;
80557;SDS011;69901;43.524;-5.636;2023-10-13T12:41:19;31.13;;;16.38;;
80557;SDS011;69901;43.524;-5.636;2023-10-13T12:44:03;36.50;;;16.52;;
80557;SDS011;69901;43.524;-5.636;2023-10-13T12:46:47;36.67;;;16.95;;
80557;SDS011;69901;43.524;-5.636;2023-10-13T12:49:34;35.17;;;16.88;;
80557;SDS011;69901;43.524;-5.636;2023-10-13T12:52:13;32.77;;;15.87;;
80557;SDS011;69901;43.524;-5.636;2023-10-13T12:54:44;34.25;;;14.80;;
80557;SDS011;69901;43.524;-5.636;2023-10-13T12:57:24;31.95;;;14.80;;
80557;SDS011;69901;43.524;-5.636;2023-10-13T12:59:49;35.08;;;16.38;;
80557;SDS011;69901;43.524;-5.636;2023-10-13T13:02:19;35.10;;;15.15;;
80557;SDS011;69901;43.524;-5.636;2023-10-13T13:04:45;34.90;;;16.33;;
80557;SDS011;69901;43.524;-5.636;2023-10-13T13:07:13;29.85;;;14.13;;
80557;SDS011;69901;43.524;-5.636;2023-10-13T13:09:41;29.03;;;11.97;;
80557;SDS011;69901;43.524;-5.636;2023-10-13T13:12:07;23.17;;;12.30;;
80557;SDS011;69901;43.524;-5.636;2023-10-13T13:14:32;26.27;;;13.45;;
80557;SDS011;69901;43.524;-5.636;2023-10-13T13:16:59;29.60;;;16.10;;
80557;SDS011;69901;43.524;-5.636;2023-10-13T13:19:30;32.38;;;14.50;;
80557;SDS011;69901;43.524;-5.636;2023-10-13T13:21:59;30.73;;;14.52;;
80557;SDS011;69901;43.524;-5.636;2023-10-13T13:24:24;28.97;;;13.40;;
80557;SDS011;69901;43.524;-5.636;2023-10-13T13:26:49;31.50;;;15.03;;
80557;SDS011;69901;43.524;-5.636;2023-10-13T13:29:19;28.08;;;13.93;;
80557;SDS011;69901;43.524;-5.636;2023-10-13T13:31:45;28.67;;;13.53;;
80557;SDS011;69901;43.524;-5.636;2023-10-13T13:34:11;25.33;;;11.55;;
80557;SDS011;69901;43.524;-5.636;2023-10-13T13:36:39;23.42;;;12.23;;
80557;SDS011;69901;43.524;-5.636;2023-10-13T13:39:15;26.73;;;12.75;;
80557;SDS011;69901;43.524;-5.636;2023-10-13T13:41:53;30.37;;;13.83;;
80557;SDS011;69901;43.524;-5.636;2023-10-13T13:44:24;26.13;;;11.13;;
80557;SDS011;69901;43.524;-5.636;2023-10-13T13:46:54;24.50;;;10.98;;
80557;SDS011;69901;43.524;-5.636;2023-10-13T13:49:21;28.27;;;11.45;;
80557;SDS011;69901;43.524;-5.636;2023-10-13T13:51:53;26.15;;;11.95;;
80557;SDS011;69901;43.524;-5.636;2023-10-13T13:54:19;25.70;;;12.00;;
80557;SDS011;69901;43.524;-5.636;2023-10-13T13:56:45;27.37;;;12.37;;
80557;SDS011;69901;43.524;-5.636;2023-10-13T13:59:10;26.23;;;11.77;;
80557;SDS011;69901;43.524;-5.636;2023-10-13T14:01:40;29.23;;;11.50;;
80557;SDS011;69901;43.524;-5.636;2023-10-13T14:04:09;22.00;;;11.27;;
80557;SDS011;69901;43.524;-5.636;2023-10-13T14:06:34;24.30;;;11.20;;
80557;SDS011;69901;43.524;-5.636;2023-10-13T14:09:00;26.77;;;10.32;;
80557;SDS011;69901;43.524;-5.636;2023-10-13T14:11:39;23.97;;;9.90;;
80557;SDS011;69901;43.524;-5.636;2023-10-13T14:16:36;24.23;;;8.33;;
80557;SDS011;69901;43.524;-5.636;2023-10-13T14:19:02;23.58;;;10.35;;
80557;SDS011;69901;43.524;-5.636;2023-10-13T14:21:32;25.92;;;11.35;;
80557;SDS011;69901;43.524;-5.636;2023-10-13T14:24:00;28.97;;;11.67;;
80557;SDS011;69901;43.524;-5.636;2023-10-13T14:26:38;23.70;;;10.52;;
80557;SDS011;69901;43.524;-5.636;2023-10-13T14:29:03;26.20;;;11.27;;
80557;SDS011;69901;43.524;-5.636;2023-10-13T14:31:33;27.15;;;11.82;;
80557;SDS011;69901;43.524;-5.636;2023-10-13T14:33:58;20.80;;;8.87;;
80557;SDS011;69901;43.524;-5.636;2023-10-13T14:36:24;23.73;;;9.30;;
80557;SDS011;69901;43.524;-5.636;2023-10-13T14:38:53;22.85;;;8.00;;
80557;SDS011;69901;43.524;-5.636;2023-10-13T14:41:19;21.17;;;9.23;;
80557;SDS011;69901;43.524;-5.636;2023-10-13T14:43:44;25.67;;;10.53;;
80557;SDS011;69901;43.524;-5.636;2023-10-13T14:46:15;23.63;;;9.95;;
80557;SDS011;69901;43.524;-5.636;2023-10-13T14:48:43;38.77;;;16.70;;
80557;SDS011;69901;43.524;-5.636;2023-10-13T14:51:10;42.63;;;21.10;;
80557;SDS011;69901;43.524;-5.636;2023-10-13T14:53:38;33.53;;;15.63;;
80557;SDS011;69901;43.524;-5.636;2023-10-13T14:56:07;32.15;;;14.15;;
80557;SDS011;69901;43.524;-5.636;2023-10-13T14:58:33;29.98;;;12.43;;
80557;SDS011;69901;43.524;-5.636;2023-10-13T15:00:59;38.93;;;17.90;;
80557;SDS011;69901;43.524;-5.636;2023-10-13T15:03:26;41.33;;;20.77;;
80557;SDS011;69901;43.524;-5.636;2023-10-13T15:05:51;40.90;;;19.42;;
80557;SDS011;69901;43.524;-5.636;2023-10-13T15:08:20;49.03;;;22.42;;
80557;SDS011;69901;43.524;-5.636;2023-10-13T15:10:45;47.43;;;24.23;;